Time;durP1;ratioP1;P1;durP2;ratioP2;P2;SDS_P1;SDS_P2;PMS_P1;PMS_P2;Temp;Humidity;BMP_temperature;BMP_pressure;BME280_temperature;BME280_humidity;BME280_pressure;Samples;Min_cycle;Max_cycle;Signal;HPM_P1;HPM_P2
2022/09/13 00:01:22;;;;;;;4.57;4.10;;;;;;;;;;5116520;28;20216;-74
2022/09/13 00:03:48;;;;;;;4.20;4.20;;;;;;;;;;5116767;28;20186;-74
2022/09/13 00:06:18;;;;;;;4.10;4.00;;;;;;;-142.65;78.34;50170.78;5116146;28;20655;-74
2022/09/13 00:08:45;;;;;;;4.27;4.27;;;;;;;-142.65;78.53;50164.81;5116197;28;20217;-74
2022/09/13 00:11:25;;;;;;;6.33;5.17;;;;;;;-142.65;78.93;50170.78;5116197;28;20211;-74
2022/09/13 00:13:52;;;;;;;4.57;4.47;;;;;;;;;;5114802;28;20635;-74
2022/09/13 00:16:20;;;;;;;4.30;4.00;;;;;;;-142.65;79.06;50162.81;5115990;28;20185;-74
2022/09/13 00:18:47;;;;;;;4.13;3.97;;;;;;;;;;5115945;28;20197;-75
2022/09/13 00:21:15;;;;;;;3.53;3.53;;;;;;;;;;5116164;28;20225;-74
2022/09/13 00:23:48;;;;;;;3.80;3.80;;;;;;;;;;5115387;28;20189;-74
2022/09/13 00:26:19;;;;;;;4.50;3.67;;;;;;;-142.65;78.31;50168.78;5116114;28;20173;-75
2022/09/13 00:28:50;;;;;;;3.13;3.13;;;;;;;-142.65;78.35;50168.78;5115790;28;20258;-74
2022/09/13 00:31:17;;;;;;;8.43;3.90;;;;;;;-142.65;78.33;50168.78;5116243;28;20170;-74
2022/09/13 00:33:44;;;;;;;4.67;3.57;;;;;;;-142.65;77.51;50172.78;5115590;28;20200;-75
2022/09/13 00:36:11;;;;;;;3.60;3.53;;;;;;;-142.65;77.45;50168.78;5115779;28;20192;-75
2022/09/13 00:38:38;;;;;;;3.70;3.70;;;;;;;;;;5115492;28;20201;-74
2022/09/13 00:41:05;;;;;;;3.70;3.70;;;;;;;;;;5115459;28;20193;-74
2022/09/13 00:43:47;;;;;;;3.27;3.27;;;;;;;;;;5116053;28;20178;-74
2022/09/13 00:46:19;;;;;;;3.83;3.20;;;;;;;;;;5116012;28;20208;-74
2022/09/13 00:48:48;;;;;;;3.40;3.40;;;;;;;-142.65;77.17;50164.81;5115766;28;20200;-74
2022/09/13 00:51:19;;;;;;;3.30;3.30;;;;;;;;;;5115608;28;20173;-74
2022/09/13 00:53:51;;;;;;;5.03;3.30;;;;;;;-142.65;77.56;50164.81;5115545;28;20535;-74
2022/09/13 00:56:21;;;;;;;3.40;3.40;;;;;;;;;;5115766;28;20178;-74
2022/09/13 00:59:01;;;;;;;9.00;4.10;;;;;;;-142.65;78.01;50168.78;5115671;28;20585;-74
2022/09/13 01:01:39;;;;;;;3.37;3.37;;;;;;;-142.65;78.28;50172.78;5115615;28;20197;-74
2022/09/13 01:04:05;;;;;;;3.50;3.40;;;;;;;-142.65;78.23;50170.78;5115348;28;20538;-74
2022/09/13 01:06:40;;;;;;;3.57;3.27;;;;;;;-142.65;78.35;50170.78;5115322;28;20192;-74
2022/09/13 01:09:06;;;;;;;3.00;3.00;;;;;;;-142.65;77.98;50174.75;5114871;28;20216;-74
2022/09/13 01:11:46;;;;;;;4.10;3.80;;;;;;;-142.65;76.98;50164.81;5114691;28;20196;-74
2022/09/13 01:14:13;;;;;;;9.93;4.23;;;;;;;-142.65;77.27;50172.78;5114883;28;20177;-74
2022/09/13 01:16:39;;;;;;;3.50;3.50;;;;;;;;;;5115063;28;20180;-74
2022/09/13 01:19:10;;;;;;;3.73;3.63;;;;;;;-142.65;77.05;50170.78;5114771;28;20204;-75
2022/09/13 01:21:51;;;;;;;3.43;3.30;;;;;;;;;;5096540;28;20220;-75
2022/09/13 01:24:24;;;;;;;6.03;3.73;;;;;;;;;;5114654;28;20181;-75
2022/09/13 01:27:00;;;;;;;3.80;3.80;;;;;;;;;;5115206;28;20180;-75
2022/09/13 01:29:41;;;;;;;3.00;3.00;;;;;;;-142.65;77.06;50162.81;5114523;28;20208;-74
2022/09/13 01:32:18;;;;;;;3.60;3.60;;;;;;;-142.65;77.28;50170.78;5114806;28;20169;-74
2022/09/13 01:35:09;;;;;;;3.93;3.60;;;;;;;-142.65;77.33;50170.78;5113984;28;20188;-74
2022/09/13 01:37:54;;;;;;;4.07;3.87;;;;;;;-142.65;77.48;50176.75;5114582;28;20205;-73
2022/09/13 01:40:20;;;;;;;3.90;3.83;;;;;;;;;;5114891;28;20188;-74
2022/09/13 01:42:53;;;;;;;3.93;3.93;;;;;;;-142.65;76.88;50168.78;5114240;28;20247;-74
2022/09/13 01:45:57;;;;;;;3.63;3.33;;;;;;;-142.65;76.62;50168.78;5114293;28;20185;-74
2022/09/13 01:48:44;;;;;;;3.77;3.77;;;;;;;-142.65;76.94;50168.78;5031580;28;20721;-74
2022/09/13 01:51:23;;;;;;;3.13;3.13;;;;;;;-142.65;76.97;50170.78;5109209;28;20541;-74
2022/09/13 01:54:11;;;;;;;4.00;3.90;;;;;;;-142.65;77.02;50170.78;5114177;28;20627;-74
2022/09/13 01:56:50;;;;;;;3.50;3.30;;;;;;;-142.65;77.03;50170.78;5114430;28;20177;-74
2022/09/13 01:59:35;;;;;;;3.57;3.57;;;;;;;-142.65;76.98;50170.78;5114309;28;20212;-74
2022/09/13 02:02:10;;;;;;;3.43;3.43;;;;;;;-142.65;76.78;50172.78;5114256;28;20654;-74
2022/09/13 02:04:39;;;;;;;3.30;3.20;;;;;;;;;;5114349;28;20627;-74
2022/09/13 02:07:13;;;;;;;3.20;3.00;;;;;;;-142.65;76.68;50172.78;5113867;28;20276;-74
2022/09/13 02:09:44;;;;;;;4.10;4.00;;;;;;;-142.65;76.45;50162.81;5113955;28;20177;-74
2022/09/13 02:12:22;;;;;;;3.93;3.83;;;;;;;-142.65;75.64;50164.81;5114510;28;20551;-74
2022/09/13 02:14:55;;;;;;;3.90;3.90;;;;;;;;;;5114421;28;20546;-74
2022/09/13 02:17:24;;;;;;;5.03;4.37;;;;;;;-142.65;75.38;50168.78;5114076;28;20188;-74
2022/09/13 02:19:59;;;;;;;3.87;3.37;;;;;;;-142.65;75.69;50170.78;5113774;28;20647;-74
2022/09/13 02:22:31;;;;;;;4.53;3.60;;;;;;;-142.65;75.41;50168.78;5113680;28;20197;-74
2022/09/13 02:25:05;;;;;;;4.23;4.07;;;;;;;-142.65;74.42;50164.81;5113969;28;20204;-74
2022/09/13 02:27:32;;;;;;;3.83;3.83;;;;;;;;;;5112819;28;20209;-73
2022/09/13 02:30:07;;;;;;;7.50;3.53;;;;;;;-142.65;71.95;50172.78;5113665;28;20185;-74
2022/09/13 02:32:51;;;;;;;3.27;3.07;;;;;;;-142.65;72.53;50168.78;5113987;28;20183;-74
2022/09/13 02:35:35;;;;;;;5.93;3.27;;;;;;;-142.65;73.13;50170.78;5114229;28;20184;-74
2022/09/13 02:38:06;;;;;;;3.30;3.30;;;;;;;-142.65;72.91;50168.78;5113600;28;20204;-74
2022/09/13 02:40:41;;;;;;;3.77;3.53;;;;;;;-142.65;73.01;50168.78;5113909;28;20690;-74
2022/09/13 02:43:13;;;;;;;3.67;3.57;;;;;;;;;;5113476;28;20192;-74
2022/09/13 02:45:52;;;;;;;4.07;3.77;;;;;;;;;;5115366;28;20196;-74
2022/09/13 02:48:28;;;;;;;3.57;3.53;;;;;;;-142.65;73.50;50168.78;5117905;28;20567;-74
2022/09/13 02:51:02;;;;;;;10.60;3.60;;;;;;;-142.65;73.00;50168.78;5117969;28;20184;-74
2022/09/13 02:53:36;;;;;;;3.13;3.13;;;;;;;-142.65;72.79;50172.78;5117952;28;20171;-74
2022/09/13 02:56:23;;;;;;;2.77;2.77;;;;;;;-142.65;72.74;50170.78;5117620;28;20211;-74
2022/09/13 02:59:08;;;;;;;3.00;3.00;;;;;;;-142.65;72.47;50162.81;5117542;28;20204;-74
2022/09/13 03:01:37;;;;;;;3.10;3.00;;;;;;;-142.65;72.29;50168.78;5117939;28;20212;-74
2022/09/13 03:04:04;;;;;;;3.00;3.00;;;;;;;-142.65;72.55;50172.78;5117424;28;20545;-74
2022/09/13 03:06:30;;;;;;;2.77;2.77;;;;;;;-142.65;72.48;50164.81;5117342;28;20189;-74
2022/09/13 03:08:59;;;;;;;3.17;3.17;;;;;;;;;;5117234;28;20216;-74
2022/09/13 03:11:45;;;;;;;3.10;3.00;;;;;;;;;;5117211;28;20555;-74
2022/09/13 03:14:41;;;;;;;3.47;3.37;;;;;;;-142.65;73.03;50170.78;5099424;28;20178;-74
2022/09/13 03:17:47;;;;;;;3.30;3.10;;;;;;;-142.65;73.15;50170.78;5099569;28;20208;-74
2022/09/13 03:20:37;;;;;;;3.67;3.57;;;;;;;-142.65;73.28;50168.78;5116887;28;20181;-74
2022/09/13 03:23:21;;;;;;;4.37;4.00;;;;;;;-142.65;73.19;50170.78;5117271;28;20207;-74
2022/09/13 03:26:13;;;;;;;3.80;3.60;;;;;;;-142.65;73.40;50164.81;5117068;28;20177;-74
2022/09/13 03:28:51;;;;;;;3.70;3.60;;;;;;;;;;5117042;28;20205;-74
2022/09/13 03:31:25;;;;;;;3.20;3.20;;;;;;;;;;5117005;28;20173;-74
2022/09/13 03:33:56;;;;;;;3.43;3.20;;;;;;;;;;5117286;28;20232;-74
2022/09/13 03:36:35;;;;;;;2.70;2.60;;;;;;;-142.65;74.77;50162.81;5117624;28;20173;-74
2022/09/13 03:39:15;;;;;;;3.73;3.53;;;;;;;-142.65;73.36;50164.81;5116964;28;20209;-74
2022/09/13 03:41:50;;;;;;;3.13;3.13;;;;;;;-142.65;73.74;50164.81;5117205;28;20560;-74
2022/09/13 03:44:20;;;;;;;3.10;2.90;;;;;;;-142.65;72.74;50170.78;5117234;28;20173;-74
2022/09/13 03:46:48;;;;;;;2.90;2.80;;;;;;;;;;5117169;28;20174;-74
2022/09/13 03:49:16;;;;;;;5.73;3.40;;;;;;;;;;5116741;28;20209;-75
2022/09/13 03:51:44;;;;;;;2.70;2.60;;;;;;;;;;5116480;28;20277;-75
2022/09/13 03:54:18;;;;;;;3.30;3.20;;;;;;;-142.65;72.23;50168.78;5116714;28;20189;-75
2022/09/13 03:57:04;;;;;;;3.33;3.33;;;;;;;-142.65;72.30;50164.81;5115899;28;20292;-75
2022/09/13 03:59:31;;;;;;;3.60;3.50;;;;;;;;;;5116633;28;20196;-74
2022/09/13 04:01:57;;;;;;;3.00;2.90;;;;;;;-142.65;71.70;50164.81;5116534;28;20220;-74
2022/09/13 04:04:25;;;;;;;3.50;3.20;;;;;;;-142.65;71.51;50164.81;5116547;28;20558;-74
2022/09/13 04:06:53;;;;;;;3.77;3.67;;;;;;;;;;5116516;28;20188;-75
2022/09/13 04:09:19;;;;;;;3.07;3.07;;;;;;;-142.65;71.92;50168.78;5116054;28;20216;-74
2022/09/13 04:11:45;;;;;;;3.50;3.23;;;;;;;-142.65;72.20;50168.78;5115963;28;20197;-74
2022/09/13 04:14:12;;;;;;;3.10;3.10;;;;;;;-142.65;72.56;50164.81;5116084;28;20181;-74
2022/09/13 04:16:38;;;;;;;3.53;3.30;;;;;;;-142.65;72.73;50164.81;5116252;28;20191;-75
2022/09/13 04:19:05;;;;;;;3.40;3.10;;;;;;;-142.65;73.32;50168.78;5115898;28;20205;-75
2022/09/13 04:21:32;;;;;;;2.97;2.97;;;;;;;-142.65;73.32;50168.78;5115832;28;20188;-75
2022/09/13 04:23:58;;;;;;;2.77;2.77;;;;;;;-142.65;73.74;50164.81;5116057;28;20194;-75
2022/09/13 04:26:24;;;;;;;3.10;3.10;;;;;;;;;;5116121;28;20188;-75
2022/09/13 04:28:54;;;;;;;3.27;3.23;;;;;;;-142.65;73.92;50160.81;5115811;28;20220;-74
2022/09/13 04:31:21;;;;;;;2.93;2.93;;;;;;;-142.65;74.06;50162.81;5115636;28;20196;-74
2022/09/13 04:33:48;;;;;;;3.50;3.17;;;;;;;-142.65;74.14;50164.81;5115641;28;20189;-74
2022/09/13 04:36:15;;;;;;;3.23;3.10;;;;;;;-142.65;74.03;50164.81;5115600;28;20256;-74
2022/09/13 04:38:42;;;;;;;3.27;3.17;;;;;;;-142.65;74.33;50164.81;5115468;28;20208;-74
2022/09/13 04:41:09;;;;;;;3.40;3.20;;;;;;;-142.65;74.01;50162.81;5115555;28;20678;-74
2022/09/13 04:43:36;;;;;;;3.07;2.97;;;;;;;-142.65;74.16;50172.78;5115957;28;20208;-74
2022/09/13 04:46:02;;;;;;;2.90;2.90;;;;;;;-142.65;74.11;50170.78;5115662;28;20177;-74
2022/09/13 04:48:28;;;;;;;3.33;3.30;;;;;;;-142.65;74.14;50168.78;5115321;28;20709;-74
2022/09/13 04:51:03;;;;;;;3.30;3.10;;;;;;;-142.65;74.50;50170.78;5115422;28;20659;-75
2022/09/13 04:53:30;;;;;;;3.60;3.50;;;;;;;-142.65;74.90;50168.78;5115591;28;20238;-75
2022/09/13 04:56:04;;;;;;;3.43;3.33;;;;;;;-142.65;75.10;50170.78;5115486;28;20196;-75
2022/09/13 04:58:31;;;;;;;3.57;3.57;;;;;;;-142.65;75.35;50170.78;5115385;28;20566;-74
2022/09/13 05:01:02;;;;;;;5.70;2.97;;;;;;;-142.65;75.55;50168.78;5115083;28;20185;-74
2022/09/13 05:03:30;;;;;;;3.70;3.47;;;;;;;-142.65;75.80;50162.81;5115277;28;20277;-74
2022/09/13 05:06:09;;;;;;;3.53;3.43;;;;;;;;;;5115227;28;20195;-74
2022/09/13 05:08:36;;;;;;;3.50;3.50;;;;;;;-142.65;75.92;50168.78;5114977;28;20227;-74
2022/09/13 05:11:04;;;;;;;3.60;3.40;;;;;;;-142.65;75.97;50164.81;5114806;28;20189;-74
2022/09/13 05:13:32;;;;;;;3.00;3.00;;;;;;;-142.65;76.01;50170.78;5115485;28;20173;-74
2022/09/13 05:16:01;;;;;;;3.57;3.37;;;;;;;-142.65;76.04;50168.78;5114783;28;20262;-74
2022/09/13 05:18:29;;;;;;;3.73;3.63;;;;;;;-142.65;75.99;50168.78;5114959;28;20197;-74
2022/09/13 05:20:56;;;;;;;3.77;3.47;;;;;;;-142.65;76.31;50164.81;5114728;28;20200;-74
2022/09/13 05:23:24;;;;;;;3.77;3.43;;;;;;;-142.65;76.48;50168.78;5096843;28;20205;-74
2022/09/13 05:25:59;;;;;;;3.40;3.40;;;;;;;-142.65;76.59;50162.81;5114623;28;20177;-74
2022/09/13 05:28:30;;;;;;;4.50;4.30;;;;;;;-142.65;76.88;50168.78;5114594;28;20578;-74
2022/09/13 05:31:01;;;;;;;4.10;4.00;;;;;;;-142.65;76.97;50172.78;5115007;28;20526;-74
2022/09/13 05:33:28;;;;;;;4.40;4.00;;;;;;;;;;5114408;28;20204;-74
2022/09/13 05:35:55;;;;;;;4.00;3.80;;;;;;;-142.65;76.83;50168.78;5115235;28;20545;-74
2022/09/13 05:38:22;;;;;;;3.60;3.60;;;;;;;;;;5114300;28;20215;-74
2022/09/13 05:40:55;;;;;;;6.10;3.60;;;;;;;-142.65;77.07;50164.81;5114345;28;20241;-74
2022/09/13 05:43:22;;;;;;;4.20;4.20;;;;;;;;;;5114506;28;20201;-74
2022/09/13 05:45:48;;;;;;;3.83;3.77;;;;;;;-142.65;77.50;50164.81;5114532;28;20197;-75
2022/09/13 05:48:15;;;;;;;6.83;4.27;;;;;;;-142.65;77.57;50164.81;5114716;28;20216;-74
2022/09/13 05:50:41;;;;;;;3.37;3.37;;;;;;;;;;5114754;28;20173;-74
2022/09/13 05:53:23;;;;;;;3.57;3.57;;;;;;;-142.65;78.47;50168.78;5114758;28;20184;-74
2022/09/13 05:55:50;;;;;;;4.47;4.30;;;;;;;;;;5114078;28;20196;-74
2022/09/13 05:58:16;;;;;;;4.33;4.23;;;;;;;-142.65;78.83;50170.78;5114500;28;20214;-74
2022/09/13 06:00:43;;;;;;;3.93;3.73;;;;;;;-142.65;78.89;50170.78;5114337;28;20185;-74
2022/09/13 06:03:09;;;;;;;6.90;4.93;;;;;;;-142.65;78.35;50170.78;5114658;28;20565;-74
2022/09/13 06:05:35;;;;;;;5.17;4.97;;;;;;;-142.65;77.61;50172.78;5113931;28;20199;-74
2022/09/13 06:08:02;;;;;;;5.93;5.23;;;;;;;-142.65;77.40;50164.81;5114132;28;20201;-74
2022/09/13 06:10:28;;;;;;;5.23;4.70;;;;;;;-142.65;77.50;50168.78;5095912;28;20186;-75
2022/09/13 06:12:54;;;;;;;4.83;4.50;;;;;;;;;;5113629;28;20189;-75
2022/09/13 06:15:20;;;;;;;4.57;4.43;;;;;;;-142.65;76.04;50170.78;5114384;28;20189;-75
2022/09/13 06:17:47;;;;;;;4.53;4.40;;;;;;;-142.65;75.66;50168.78;5113715;28;20211;-74
2022/09/13 06:20:13;;;;;;;4.00;3.83;;;;;;;-142.65;74.95;50170.78;5113622;28;20193;-74
2022/09/13 06:22:40;;;;;;;13.80;4.13;;;;;;;-142.65;75.04;50168.78;5113637;28;20212;-75
2022/09/13 06:25:06;;;;;;;4.77;4.47;;;;;;;;;;5113737;28;20181;-75
2022/09/13 06:27:33;;;;;;;4.40;4.30;;;;;;;-142.65;75.02;50168.78;5113843;28;20302;-74
2022/09/13 06:29:59;;;;;;;7.10;4.73;;;;;;;-142.65;75.30;50164.81;5113640;28;20185;-74
2022/09/13 06:32:25;;;;;;;4.07;3.97;;;;;;;-142.65;74.90;50170.78;5113646;28;20189;-74
2022/09/13 06:34:52;;;;;;;4.77;4.60;;;;;;;-142.65;74.66;50168.78;5113626;28;20185;-74
2022/09/13 06:37:18;;;;;;;4.97;4.70;;;;;;;;;;5113594;28;20193;-74
2022/09/13 06:39:45;;;;;;;6.87;4.70;;;;;;;;;;5113573;28;20200;-74
2022/09/13 06:42:11;;;;;;;13.80;4.83;;;;;;;-142.65;75.35;50174.75;5113695;28;20181;-74
2022/09/13 06:44:38;;;;;;;5.40;4.90;;;;;;;;;;5095335;28;20678;-74
2022/09/13 06:47:04;;;;;;;8.50;5.27;;;;;;;-142.65;75.13;50164.81;5113388;28;20259;-73
2022/09/13 06:49:31;;;;;;;4.43;4.23;;;;;;;;;;5113474;28;20189;-74
2022/09/13 06:51:57;;;;;;;4.40;4.30;;;;;;;-142.65;74.75;50176.75;5113494;28;20554;-74
2022/09/13 06:54:23;;;;;;;7.07;4.63;;;;;;;;;;5113717;28;20195;-74
2022/09/13 06:56:49;;;;;;;4.97;4.70;;;;;;;;;;5095326;28;20189;-74
2022/09/13 06:59:16;;;;;;;5.07;4.77;;;;;;;-142.65;74.83;50170.78;5113368;28;20205;-74
2022/09/13 07:01:43;;;;;;;4.40;4.30;;;;;;;-142.65;74.61;50164.81;5113396;28;20554;-75
2022/09/13 07:04:12;;;;;;;5.00;4.80;;;;;;;-142.65;74.43;50164.81;5113577;28;20219;-75
2022/09/13 07:06:42;;;;;;;4.57;4.47;;;;;;;-142.65;74.53;50164.81;5113354;28;20287;-75
2022/09/13 07:09:12;;;;;;;6.83;5.23;;;;;;;-142.65;74.27;50170.78;5113224;28;20213;-74
2022/09/13 07:11:40;;;;;;;4.40;4.27;;;;;;;-142.65;73.60;50164.81;5113445;28;20193;-75
2022/09/13 07:14:07;;;;;;;4.77;4.67;;;;;;;-142.65;73.35;50162.81;5113258;28;20182;-75
2022/09/13 07:16:36;;;;;;;4.83;4.63;;;;;;;-142.65;73.60;50170.78;5112032;28;20203;-75
2022/09/13 07:19:11;;;;;;;7.00;5.63;;;;;;;-142.65;72.94;50170.78;5113216;28;20216;-75
2022/09/13 07:21:38;;;;;;;5.23;5.00;;;;;;;-142.65;73.08;50174.75;5113448;28;20168;-75
2022/09/13 07:24:04;;;;;;;4.83;4.50;;;;;;;-142.65;73.45;50168.78;5113399;28;20697;-75
2022/09/13 07:26:31;;;;;;;11.97;5.03;;;;;;;;;;5113420;28;20190;-75
2022/09/13 07:28:58;;;;;;;4.80;4.50;;;;;;;;;;5113084;28;20220;-74
2022/09/13 07:31:29;;;;;;;4.97;4.53;;;;;;;-142.65;73.23;50168.78;5107131;28;20190;-74
2022/09/13 07:34:01;;;;;;;6.10;5.43;;;;;;;-142.65;73.49;50164.81;5116638;28;20178;-74
2022/09/13 07:36:29;;;;;;;5.40;4.90;;;;;;;-142.65;73.98;50164.81;5116739;28;20188;-75
2022/09/13 07:38:57;;;;;;;5.47;5.17;;;;;;;-142.65;73.32;50162.81;5116805;28;20209;-74
2022/09/13 07:41:25;;;;;;;5.87;5.33;;;;;;;-142.65;73.04;50168.78;5117094;28;20626;-75
2022/09/13 07:43:52;;;;;;;7.40;4.97;;;;;;;-142.65;72.61;50164.81;5116593;28;20565;-75
2022/09/13 07:46:24;;;;;;;6.03;5.57;;;;;;;-142.65;72.99;50162.81;5116571;28;20181;-75
2022/09/13 07:48:53;;;;;;;5.93;5.47;;;;;;;-142.65;72.39;50164.81;5116885;28;20209;-75
2022/09/13 07:51:21;;;;;;;9.33;5.13;;;;;;;-142.65;71.95;50164.81;5116551;28;20190;-75
2022/09/13 07:53:50;;;;;;;5.40;5.07;;;;;;;-142.65;72.32;50164.81;5116708;28;20523;-75
2022/09/13 07:56:24;;;;;;;5.50;5.40;;;;;;;;;;5116335;28;20180;-75
2022/09/13 07:58:51;;;;;;;5.30;5.10;;;;;;;;;;5116586;28;20209;-74
2022/09/13 08:01:20;;;;;;;6.63;6.23;;;;;;;-142.65;72.80;50164.81;5116603;28;20200;-75
2022/09/13 08:04:02;;;;;;;4.73;4.63;;;;;;;-142.65;72.80;50170.78;5116191;28;20210;-75
2022/09/13 08:06:29;;;;;;;5.23;4.90;;;;;;;;;;5116563;28;20192;-75
2022/09/13 08:08:55;;;;;;;8.30;5.80;;;;;;;;;;5116153;28;20717;-76
2022/09/13 08:11:24;;;;;;;8.97;5.87;;;;;;;-142.65;72.60;50164.81;5116171;28;20197;-76
2022/09/13 08:13:51;;;;;;;5.80;5.70;;;;;;;;;;5116361;28;20185;-75
2022/09/13 08:16:18;;;;;;;7.03;5.47;;;;;;;;;;5116597;28;20185;-74
2022/09/13 08:18:47;;;;;;;7.90;6.50;;;;;;;-142.65;72.02;50168.78;5115881;28;20216;-74
2022/09/13 08:21:15;;;;;;;7.20;5.47;;;;;;;-142.65;72.35;50164.81;5116286;28;20185;-75
2022/09/13 08:23:42;;;;;;;5.80;5.50;;;;;;;-142.65;72.19;50164.81;5116109;28;20215;-75
2022/09/13 08:26:09;;;;;;;8.90;6.10;;;;;;;;;;5115812;28;20188;-75
2022/09/13 08:28:39;;;;;;;6.07;5.80;;;;;;;-142.65;71.59;50164.81;5115908;28;20201;-74
2022/09/13 08:31:12;;;;;;;17.57;7.40;;;;;;;-142.65;72.17;50164.81;5115732;28;20189;-74
2022/09/13 08:33:41;;;;;;;15.37;6.40;;;;;;;;;;5116296;28;20222;-75
2022/09/13 08:36:12;;;;;;;6.37;6.07;;;;;;;-142.65;72.36;50164.81;5116024;28;20542;-75
2022/09/13 08:38:38;;;;;;;6.63;6.20;;;;;;;-142.65;71.96;50162.81;5115499;28;20569;-74
2022/09/13 08:41:20;;;;;;;7.47;6.93;;;;;;;;;;5115743;28;20193;-74
2022/09/13 08:43:54;;;;;;;6.30;6.00;;;;;;;-142.65;71.61;50168.78;5097256;28;20189;-75
2022/09/13 08:46:31;;;;;;;6.63;6.23;;;;;;;-142.65;71.82;50168.78;5097544;28;20172;-75
2022/09/13 08:49:00;;;;;;;7.20;6.60;;;;;;;;;;5115612;28;20204;-75
2022/09/13 08:51:46;;;;;;;7.00;6.60;;;;;;;-142.65;71.17;50164.81;5097767;28;20192;-76
2022/09/13 08:54:16;;;;;;;8.30;7.70;;;;;;;;;;5115764;28;20184;-76
2022/09/13 08:57:24;;;;;;;9.17;8.27;;;;;;;-142.65;70.96;50162.81;5115317;28;20182;-75
2022/09/13 09:00:04;;;;;;;11.43;7.23;;;;;;;-142.65;70.58;50164.81;5115153;28;20177;-75
2022/09/13 09:02:53;;;;;;;13.50;8.40;;;;;;;;;;5115150;28;20185;-75
2022/09/13 09:05:25;;;;;;;8.57;7.77;;;;;;;;;;5115264;28;20204;-75
2022/09/13 09:08:11;;;;;;;8.03;7.30;;;;;;;-142.65;70.38;50168.78;5114981;28;20217;-74
2022/09/13 09:10:43;;;;;;;7.50;6.63;;;;;;;;;;5115006;28;20178;-75
2022/09/13 09:13:24;;;;;;;13.50;7.00;;;;;;;;;;5115452;28;20184;-75
2022/09/13 09:15:55;;;;;;;8.20;7.27;;;;;;;-142.65;69.40;50162.81;5115495;28;20536;-75
2022/09/13 09:18:38;;;;;;;7.83;7.17;;;;;;;-142.65;69.44;50162.81;5115025;28;20216;-74
2022/09/13 09:21:15;;;;;;;6.67;6.37;;;;;;;-142.65;70.08;50162.81;5115137;28;20177;-75
2022/09/13 09:23:52;;;;;;;6.40;6.00;;;;;;;-142.65;69.66;50168.78;5114999;28;20215;-75
2022/09/13 09:26:30;;;;;;;7.43;6.87;;;;;;;-142.65;69.66;50162.81;5115001;28;20177;-75
2022/09/13 09:28:59;;;;;;;8.93;7.03;;;;;;;-142.65;69.03;50162.81;5114664;28;20217;-75
2022/09/13 09:31:41;;;;;;;8.57;6.30;;;;;;;;;;5096291;28;20189;-75
2022/09/13 09:34:17;;;;;;;7.60;6.90;;;;;;;-142.65;69.80;50162.81;5114881;28;20192;-75
2022/09/13 09:36:54;;;;;;;8.30;7.60;;;;;;;-142.65;69.13;50168.78;5114799;28;20173;-75
2022/09/13 09:39:25;;;;;;;8.83;7.87;;;;;;;-142.65;69.46;50164.81;5114378;28;20209;-75
2022/09/13 09:41:56;;;;;;;8.17;7.33;;;;;;;;;;5114733;28;20182;-75
2022/09/13 09:44:26;;;;;;;8.10;7.50;;;;;;;;;;5114579;28;20190;-75
2022/09/13 09:47:11;;;;;;;8.97;7.80;;;;;;;;;;5114585;28;20185;-75
2022/09/13 09:50:11;;;;;;;7.70;7.03;;;;;;;-142.65;69.08;50168.78;5114249;28;20193;-76
2022/09/13 09:52:44;;;;;;;9.07;7.60;;;;;;;-142.65;69.26;50164.81;5114418;28;20624;-76
2022/09/13 09:55:19;;;;;;;8.13;7.53;;;;;;;;;;5113518;28;20170;-76
2022/09/13 09:57:55;;;;;;;14.10;7.10;;;;;;;-142.65;69.06;50164.81;5114168;28;20205;-75
2022/09/13 10:00:24;;;;;;;6.53;6.30;;;;;;;-142.65;68.11;50164.81;5114188;28;20180;-76
2022/09/13 10:02:53;;;;;;;8.37;6.50;;;;;;;;;;5113937;28;20189;-75
2022/09/13 10:05:21;;;;;;;6.80;6.27;;;;;;;;;;5114242;28;20197;-77
2022/09/13 10:07:53;;;;;;;7.10;6.67;;;;;;;;;;5114259;28;20213;-76
2022/09/13 10:10:23;;;;;;;7.57;7.17;;;;;;;-142.65;68.72;50164.81;5114210;28;20267;-76
2022/09/13 10:12:54;;;;;;;7.50;6.90;;;;;;;-142.65;69.56;50170.78;5113805;28;20184;-76
2022/09/13 10:15:22;;;;;;;7.03;6.73;;;;;;;;;;5114433;28;20181;-76
2022/09/13 10:18:13;;;;;;;7.60;6.87;;;;;;;-142.65;68.34;50162.81;5113753;28;20246;-75
2022/09/13 10:21:02;;;;;;;8.03;7.33;;;;;;;;;;5114404;28;20631;-76
2022/09/13 10:23:31;;;;;;;6.53;6.17;;;;;;;-142.65;69.61;50164.81;5113613;28;20552;-75
2022/09/13 10:26:11;;;;;;;7.60;6.87;;;;;;;;;;5096269;28;20221;-76
2022/09/13 10:28:41;;;;;;;6.17;5.80;;;;;;;-142.65;68.67;50162.81;5113680;28;20213;-75
2022/09/13 10:31:12;;;;;;;6.70;6.23;;;;;;;-142.65;68.29;50162.81;5095473;28;20200;-76
2022/09/13 10:33:48;;;;;;;7.03;6.73;;;;;;;;;;5113943;28;20169;-76
2022/09/13 10:36:20;;;;;;;6.60;6.30;;;;;;;;;;5114190;28;20189;-76
2022/09/13 10:39:16;;;;;;;6.77;6.47;;;;;;;-142.65;67.56;50162.81;5113617;28;20224;-75
2022/09/13 10:41:47;;;;;;;7.60;6.93;;;;;;;;;;5113616;28;20166;-75
2022/09/13 10:44:23;;;;;;;7.53;6.80;;;;;;;-142.65;67.45;50164.81;5113517;28;20193;-75
2022/09/13 10:46:50;;;;;;;7.90;7.17;;;;;;;-142.65;68.17;50168.78;5113540;28;20188;-75
2022/09/13 10:49:38;;;;;;;6.97;6.63;;;;;;;-142.65;69.30;50168.78;5113417;28;20209;-76
2022/09/13 10:52:23;;;;;;;7.37;7.07;;;;;;;;;;5114115;28;20181;-76
2022/09/13 10:54:49;;;;;;;7.93;7.63;;;;;;;;;;5113371;28;20182;-75
2022/09/13 10:57:32;;;;;;;8.37;7.67;;;;;;;-142.65;67.48;50164.81;5111941;28;20185;-73
2022/09/13 10:59:59;;;;;;;7.33;6.83;;;;;;;-142.65;67.68;50164.81;5113253;28;20173;-75
2022/09/13 11:02:31;;;;;;;5.80;5.60;;;;;;;;;;5113627;28;20548;-75
2022/09/13 11:05:20;;;;;;;7.10;6.47;;;;;;;-142.65;68.25;50162.81;5113839;28;20541;-75
2022/09/13 11:08:25;;;;;;;6.60;6.20;;;;;;;;;;5117443;28;20563;-75
2022/09/13 11:10:51;;;;;;;7.23;6.83;;;;;;;;;;5074526;28;20194;-75
2022/09/13 11:13:30;;;;;;;7.23;6.83;;;;;;;-142.65;68.22;50168.78;5074484;28;20197;-76
2022/09/13 11:16:21;;;;;;;6.17;5.97;;;;;;;-142.65;68.65;50162.81;5098661;28;20215;-76
2022/09/13 11:18:47;;;;;;;7.77;7.30;;;;;;;;;;5117058;28;20209;-77
2022/09/13 11:21:38;;;;;;;8.40;7.80;;;;;;;-142.65;68.05;50162.81;5117104;28;20670;-76
2022/09/13 11:24:39;;;;;;;11.50;8.37;;;;;;;-142.65;66.95;50168.78;5117310;28;20197;-76
2022/09/13 11:27:30;;;;;;;8.80;8.30;;;;;;;-142.65;67.26;50162.81;5117214;28;20181;-74
2022/09/13 11:30:17;;;;;;;7.47;7.27;;;;;;;;;;5117254;28;20182;-75
2022/09/13 11:33:04;;;;;;;6.73;6.43;;;;;;;-142.65;67.17;50162.81;5117393;28;20178;-75
2022/09/13 11:36:13;;;;;;;8.23;7.57;;;;;;;-142.65;68.78;50164.81;5117130;28;20177;-76
2022/09/13 11:38:53;;;;;;;7.07;6.87;;;;;;;;;;5110879;28;20236;-75
2022/09/13 11:41:36;;;;;;;8.60;7.77;;;;;;;-142.65;67.24;50162.81;5116984;28;20173;-75
2022/09/13 11:44:25;;;;;;;7.40;7.20;;;;;;;-142.65;67.13;50162.81;5116925;28;20555;-75
2022/09/13 11:47:14;;;;;;;9.60;8.87;;;;;;;-142.65;67.88;50164.81;5116859;28;20207;-77
2022/09/13 11:49:57;;;;;;;8.77;7.93;;;;;;;-142.65;68.79;50164.81;5116831;28;20213;-76
2022/09/13 11:52:41;;;;;;;7.87;7.37;;;;;;;-142.65;68.21;50164.81;5116800;28;20654;-76
2022/09/13 11:55:32;;;;;;;7.03;6.33;;;;;;;-142.65;68.47;50164.81;5116469;28;20176;-76
2022/09/13 11:58:04;;;;;;;5.63;5.37;;;;;;;-142.65;68.39;50162.81;5116367;28;20204;-75
2022/09/13 12:00:54;;;;;;;8.47;7.93;;;;;;;;;;5116020;28;20257;-75
2022/09/13 12:03:33;;;;;;;8.30;7.50;;;;;;;-142.65;68.85;50162.81;5087951;28;20201;-75
2022/09/13 12:06:05;;;;;;;8.57;8.13;;;;;;;-142.65;68.97;50164.81;5094444;28;20170;-75
2022/09/13 12:08:38;;;;;;;7.47;7.27;;;;;;;;;;5095637;28;20228;-76
2022/09/13 12:11:12;;;;;;;9.30;8.50;;;;;;;-142.65;68.62;50164.81;5096084;28;20652;-76
2022/09/13 12:13:56;;;;;;;7.10;6.70;;;;;;;-142.65;69.58;50162.81;5096257;28;20174;-76
2022/09/13 12:16:30;;;;;;;8.67;7.87;;;;;;;-142.65;68.92;50164.81;5095992;28;20188;-75
2022/09/13 12:19:10;;;;;;;6.30;6.00;;;;;;;;;;5095110;28;20224;-75
2022/09/13 12:21:40;;;;;;;5.83;5.60;;;;;;;-142.65;69.19;50162.81;5095598;28;20177;-76
2022/09/13 12:24:38;;;;;;;6.30;6.00;;;;;;;-142.65;69.00;50162.81;5096045;28;20198;-75
2022/09/13 12:27:13;;;;;;;7.20;7.00;;;;;;;-142.65;68.50;50168.78;5066130;28;20193;-74
2022/09/13 12:29:47;;;;;;;9.43;8.60;;;;;;;-142.65;67.67;50172.78;5095411;28;20168;-75
2022/09/13 12:32:14;;;;;;;7.93;7.63;;;;;;;;;;5095870;28;20177;-75
2022/09/13 12:34:48;;;;;;;8.77;8.27;;;;;;;;;;5095277;28;20178;-76
2022/09/13 12:37:32;;;;;;;6.83;6.50;;;;;;;-142.65;69.55;50164.81;5095724;28;20178;-74
2022/09/13 12:40:09;;;;;;;5.87;5.77;;;;;;;-142.65;69.44;50162.81;5095171;28;20184;-75